Time;durP1;ratioP1;P1;durP2;ratioP2;P2;SDS_P1;SDS_P2;PMS_P1;PMS_P2;Temp;Humidity;BMP_temperature;BMP_pressure;BME280_temperature;BME280_humidity;BME280_pressure;Samples;Min_cycle;Max_cycle;Signal;HPM_P1;HPM_P2
2024/02/14 00:06:13;;;;;;;34.27;15.60;;;;;;;12.92;100.00;99807.94;31291103;28;20161;-78
2024/02/14 00:21:15;;;;;;;38.40;14.77;;;;;;;12.88;100.00;99810.00;31297927;28;20495;-79
2024/02/14 00:36:17;;;;;;;31.40;15.63;;;;;;;12.91;100.00;99811.84;31259598;28;20060;-77
2024/02/14 00:51:21;;;;;;;32.73;16.27;;;;;;;12.94;100.00;99821.88;31295895;28;20084;-74
2024/02/14 01:06:24;;;;;;;34.17;15.87;;;;;;;12.79;100.00;99820.81;31269524;28;20053;-73
2024/02/14 01:21:26;;;;;;;37.53;17.00;;;;;;;12.78;100.00;99824.72;31254863;28;20559;-74
2024/02/14 01:36:29;;;;;;;38.20;16.83;;;;;;;12.53;100.00;99836.44;31243524;28;20081;-73
2024/02/14 01:51:32;;;;;;;39.23;16.57;;;;;;;12.57;100.00;99826.97;31269495;28;20478;-74
2024/02/14 02:06:34;;;;;;;33.30;15.57;;;;;;;12.41;100.00;99832.53;31256622;28;20084;-74
2024/02/14 02:21:37;;;;;;;40.37;18.07;;;;;;;12.02;100.00;99841.16;31288773;28;20053;-73
2024/02/14 02:36:40;;;;;;;40.10;18.43;;;;;;;11.85;100.00;99852.09;31272981;28;20402;-72
2024/02/14 02:51:42;;;;;;;33.67;17.23;;;;;;;11.62;100.00;99863.22;31271331;28;20414;-75
2024/02/14 03:06:45;;;;;;;37.87;17.30;;;;;;;11.45;100.00;99859.78;31234061;28;20124;-73
2024/02/14 03:21:47;;;;;;;37.60;16.53;;;;;;;11.56;100.00;99845.91;31294138;28;20057;-79
2024/02/14 03:36:50;;;;;;;41.73;17.83;;;;;;;11.53;100.00;99849.50;31262402;28;20053;-75
2024/02/14 03:51:56;;;;;;;38.80;16.90;;;;;;;11.65;100.00;99846.03;31260811;28;20463;-74
2024/02/14 04:07:00;;;;;;;42.70;19.10;;;;;;;11.21;100.00;99842.19;31251550;28;20132;-73
2024/02/14 04:22:03;;;;;;;37.43;19.87;;;;;;;10.84;100.00;99887.00;31239291;28;20345;-75
2024/02/14 04:37:12;;;;;;;49.97;19.83;;;;;;;10.98;100.00;99880.44;31251207;28;20081;-74
2024/02/14 04:52:16;;;;;;;43.30;19.87;;;;;;;10.96;100.00;99910.75;31272171;28;20158;-75
2024/02/14 05:07:18;;;;;;;53.10;21.27;;;;;;;10.95;100.00;99925.50;31245267;28;20049;-73
2024/02/14 05:22:20;;;;;;;47.97;22.20;;;;;;;11.06;100.00;99931.44;31272225;28;20449;-73
2024/02/14 05:37:22;;;;;;;49.67;25.37;;;;;;;11.30;100.00;99939.41;31264920;28;20567;-75
2024/02/14 05:52:24;;;;;;;42.93;23.60;;;;;;;12.02;100.00;99955.41;31264603;28;20140;-73
2024/02/14 06:07:26;;;;;;;41.37;21.77;;;;;;;12.97;100.00;99957.22;31295344;28;20077;-73
2024/02/14 06:22:28;;;;;;;47.50;23.60;;;;;;;13.01;100.00;99963.31;31255241;28;20056;-73
2024/02/14 06:37:30;;;;;;;46.20;28.83;;;;;;;13.80;100.00;99966.94;31228971;28;20120;-77
2024/02/14 06:52:42;;;;;;;50.10;32.77;;;;;;;14.84;100.00;99970.91;31266239;28;20042;-75
2024/02/14 07:07:44;;;;;;;52.60;31.13;;;;;;;15.00;100.00;100011.66;31255749;28;20651;-75
2024/02/14 07:22:52;;;;;;;52.60;28.40;;;;;;;14.65;100.00;100023.94;31244507;28;20057;-74
2024/02/14 07:37:55;;;;;;;53.67;28.87;;;;;;;14.31;100.00;100038.44;31249548;28;20053;-74
2024/02/14 07:52:58;;;;;;;43.90;25.13;;;;;;;15.32;100.00;100032.28;31268518;28;20114;-74
2024/02/14 08:08:00;;;;;;;44.40;23.77;;;;;;;15.06;100.00;100030.97;31245903;28;20072;-75
2024/02/14 08:23:02;;;;;;;37.77;19.40;;;;;;;15.41;100.00;100044.44;31232281;28;20487;-75
2024/02/14 08:38:06;;;;;;;36.37;19.60;;;;;;;16.24;100.00;100057.00;31225637;28;20144;-75
2024/02/14 08:53:08;;;;;;;35.00;19.33;;;;;;;16.50;100.00;100065.66;31251004;28;20075;-75
2024/02/14 09:08:10;;;;;;;35.67;19.80;;;;;;;16.10;100.00;100071.28;31298183;28;20144;-75
2024/02/14 09:23:20;;;;;;;40.60;20.33;;;;;;;17.55;100.00;100069.38;31257630;28;20469;-75
2024/02/14 09:38:22;;;;;;;36.27;18.80;;;;;;;17.76;100.00;100051.13;31243239;28;20549;-74
2024/02/14 09:53:24;;;;;;;35.73;17.77;;;;;;;17.79;100.00;100045.47;31248503;28;20468;-80
2024/02/14 10:08:34;;;;;;;29.97;16.40;;;;;;;18.52;100.00;100042.06;31270927;28;20080;-79
2024/02/14 10:23:39;;;;;;;36.03;16.60;;;;;;;20.37;100.00;100031.56;31271793;28;20476;-78
2024/02/14 10:38:43;;;;;;;34.23;16.30;;;;;;;19.23;100.00;100038.19;31245087;28;20042;-74
2024/02/14 10:53:46;;;;;;;31.03;15.60;;;;;;;18.61;100.00;100033.75;31249069;28;20057;-76
2024/02/14 11:09:01;;;;;;;27.20;13.60;;;;;;;19.18;100.00;100032.59;31227999;28;20052;-76
2024/02/14 11:24:07;;;;;;;27.67;15.30;;;;;;;19.37;100.00;100029.13;31234237;28;20099;-75
2024/02/14 11:39:11;;;;;;;28.67;13.87;;;;;;;19.68;100.00;100030.53;31237487;28;20471;-76
2024/02/14 11:54:13;;;;;;;35.07;15.33;;;;;;;19.34;100.00;100027.34;31251053;28;20067;-75
2024/02/14 12:09:16;;;;;;;31.30;16.13;;;;;;;19.71;100.00;100046.09;31240264;28;20042;-76
2024/02/14 12:24:18;;;;;;;26.80;14.73;;;;;;;20.06;100.00;100049.53;31261593;28;20558;-78
2024/02/14 12:39:20;;;;;;;37.53;17.70;;;;;;;20.18;100.00;100055.16;31246401;28;20061;-74
2024/02/14 12:54:22;;;;;;;32.03;15.85;;;;;;;19.88;100.00;100060.06;31241060;28;20455;-74
2024/02/14 13:09:24;;;;;;;52.13;21.43;;;;;;;19.39;100.00;100067.94;31265839;28;20059;-83
2024/02/14 13:24:28;;;;;;;64.47;29.27;;;;;;;19.15;100.00;100094.84;31266406;28;20041;-74
2024/02/14 13:39:31;;;;;;;84.37;36.50;;;;;;;19.02;100.00;100091.66;31236566;28;20053;-78
2024/02/14 14:36:37;;;;;;;37.93;15.70;;;;;;;17.68;100.00;100131.09;31900625;27;1427067;-79
2024/02/14 14:51:39;;;;;;;36.07;17.50;;;;;;;17.24;100.00;100133.53;31828273;27;20054;-81
2024/02/14 15:06:41;;;;;;;34.97;17.03;;;;;;;16.91;100.00;100146.44;31842870;27;20624;-81
2024/02/14 15:21:43;;;;;;;38.00;18.23;;;;;;;16.59;100.00;100143.09;31839107;27;20059;-78
2024/02/14 15:36:45;;;;;;;34.97;17.87;;;;;;;16.33;100.00;100155.59;31751932;27;20150;-79
2024/02/14 15:51:50;;;;;;;41.17;18.07;;;;;;;16.29;100.00;100177.69;31731171;27;20074;-77
2024/02/14 16:06:52;;;;;;;38.10;17.20;;;;;;;16.21;100.00;100198.34;31733801;27;20047;-78
2024/02/14 16:21:55;;;;;;;33.97;16.87;;;;;;;16.26;100.00;100205.97;31729003;27;20061;-79
2024/02/14 16:37:16;;;;;;;37.27;18.43;;;;;;;16.03;100.00;100204.56;31727884;28;20134;-80
2024/02/14 16:52:18;;;;;;;42.10;19.60;;;;;;;15.78;100.00;100206.78;31726494;28;20040;-79
2024/02/14 17:07:21;;;;;;;50.87;22.57;;;;;;;15.50;100.00;100192.19;31713606;27;20088;-79
2024/02/14 17:22:23;;;;;;;48.60;20.67;;;;;;;15.44;100.00;100202.94;31700669;28;20059;-79
2024/02/14 17:37:34;;;;;;;40.90;19.10;;;;;;;15.27;100.00;100216.09;31715683;27;20105;-78
2024/02/14 17:52:39;;;;;;;41.77;18.67;;;;;;;15.11;100.00;100212.81;31699728;27;20079;-79
2024/02/14 18:07:45;;;;;;;39.87;19.37;;;;;;;14.91;100.00;100210.38;31717895;28;20491;-75
2024/02/14 18:22:47;;;;;;;39.43;20.37;;;;;;;14.87;100.00;100220.69;31705407;28;20051;-74
2024/02/14 18:37:52;;;;;;;46.93;20.47;;;;;;;15.03;100.00;100223.22;31715550;28;20488;-77
2024/02/14 18:52:55;;;;;;;45.30;21.10;;;;;;;14.65;100.00;100221.41;31710903;28;20063;-77
2024/02/14 19:07:57;;;;;;;48.97;21.97;;;;;;;14.84;100.00;100240.72;31724629;28;20044;-76
2024/02/14 19:23:01;;;;;;;38.30;18.77;;;;;;;15.04;100.00;100257.56;31729289;27;20492;-75
2024/02/14 19:38:03;;;;;;;37.90;19.50;;;;;;;15.09;100.00;100276.13;31720334;27;20389;-79
2024/02/14 19:53:07;;;;;;;43.77;21.03;;;;;;;14.62;100.00;100282.41;31731581;27;20075;-80
2024/02/14 20:08:09;;;;;;;41.97;18.57;;;;;;;14.29;100.00;100292.81;31716424;27;20047;-78
2024/02/14 20:23:11;;;;;;;29.20;13.73;;;;;;;14.26;100.00;100290.19;31710587;27;20105;-78
2024/02/14 20:38:13;;;;;;;25.23;12.87;;;;;;;13.99;100.00;100291.41;31692115;28;20446;-82
2024/02/14 20:53:15;;;;;;;22.47;11.43;;;;;;;13.91;100.00;100298.31;31730390;27;20487;-79
2024/02/14 21:08:19;;;;;;;19.77;10.47;;;;;;;14.04;100.00;100317.41;31736160;27;20408;-81
2024/02/14 21:23:21;;;;;;;19.77;10.93;;;;;;;13.86;100.00;100325.38;31748960;27;20515;-79
2024/02/14 21:38:23;;;;;;;17.70;9.63;;;;;;;13.78;100.00;100346.63;31721733;27;20157;-80
2024/02/14 21:53:25;;;;;;;20.00;10.23;;;;;;;13.45;100.00;100364.34;31723481;27;20039;-83
2024/02/14 22:08:30;;;;;;;20.00;10.50;;;;;;;12.99;100.00;100431.69;31720246;28;20051;-80
2024/02/14 22:23:33;;;;;;;20.20;10.50;;;;;;;12.49;100.00;100430.13;31711467;28;20397;-78
2024/02/14 22:38:36;;;;;;;27.10;12.13;;;;;;;11.98;100.00;100439.00;31723487;28;20066;-78
2024/02/14 22:53:39;;;;;;;36.00;15.27;;;;;;;12.00;100.00;100448.28;31714045;27;20255;-79
2024/02/14 23:08:44;;;;;;;35.77;14.43;;;;;;;12.06;100.00;100451.25;31772271;27;20050;-81
2024/02/14 23:23:46;;;;;;;33.87;14.33;;;;;;;11.39;100.00;100443.16;31743716;28;20056;-80
2024/02/14 23:38:51;;;;;;;42.97;15.83;;;;;;;11.26;100.00;100445.72;31737848;27;20036;-77
2024/02/14 23:53:53;;;;;;;39.83;15.50;;;;;;;11.03;100.00;100437.56;31746887;27;20087;-78
